Time;durP1;ratioP1;P1;durP2;ratioP2;P2;SDS_P1;SDS_P2;PMS_P1;PMS_P2;Temp;Humidity;BMP_temperature;BMP_pressure;BME280_temperature;BME280_humidity;BME280_pressure;Samples;Min_cycle;Max_cycle;Signal;HPM_P1;HPM_P2
2021/06/23 00:02:10;;;;;;;39.55;16.08;;;;;;;;;;5096308;28;20024;-66
2021/06/23 00:04:35;;;;;;;31.40;13.85;;;;;;;;;;5095620;28;20396;-66
2021/06/23 00:07:00;;;;;;;34.22;14.02;;;;;;;;;;5096040;28;20044;-66
2021/06/23 00:09:25;;;;;;;37.95;14.40;;;;;;;;;;5095879;28;20027;-66
2021/06/23 00:11:53;;;;;;;35.03;14.35;;;;;;;;;;5096098;28;20032;-66
2021/06/23 00:14:19;;;;;;;39.60;14.90;;;;;;;;;;5095878;28;20031;-66
2021/06/23 00:16:45;;;;;;;40.92;14.60;;;;;;;;;;5096058;28;20024;-66
2021/06/23 00:19:10;;;;;;;38.80;14.88;;;;;;;;;;5095375;28;20036;-66
2021/06/23 00:21:35;;;;;;;35.38;14.45;;;;;;;;;;5095939;28;20012;-67
2021/06/23 00:24:01;;;;;;;35.42;14.90;;;;;;;;;;5095435;28;20024;-66
2021/06/23 00:26:26;;;;;;;37.38;15.73;;;;;;;;;;5096097;28;20051;-66
2021/06/23 00:28:51;;;;;;;58.47;17.42;;;;;;;;;;5095253;28;20381;-66
2021/06/23 00:31:17;;;;;;;43.42;16.05;;;;;;;;;;5095487;28;20016;-68
2021/06/23 00:33:42;;;;;;;44.03;16.35;;;;;;;;;;5095635;28;20035;-68
2021/06/23 00:36:08;;;;;;;36.75;14.93;;;;;;;;;;5095475;28;20020;-68
2021/06/23 00:38:33;;;;;;;37.45;15.45;;;;;;;;;;5095583;28;20028;-68
2021/06/23 00:40:59;;;;;;;43.33;15.95;;;;;;;;;;5094995;28;20429;-67
2021/06/23 00:43:25;;;;;;;37.70;13.65;;;;;;;;;;5095339;28;20024;-64
2021/06/23 00:45:50;;;;;;;40.20;15.30;;;;;;;;;;5095310;28;20016;-65
2021/06/23 00:48:22;;;;;;;35.78;14.30;;;;;;;;;;5095261;28;20430;-65
2021/06/23 00:50:47;;;;;;;43.08;14.85;;;;;;;;;;5095305;28;20016;-65
2021/06/23 00:53:13;;;;;;;44.60;15.00;;;;;;;;;;5095114;28;20107;-65
2021/06/23 00:55:38;;;;;;;38.65;14.68;;;;;;;;;;5095185;28;20157;-66
2021/06/23 00:58:04;;;;;;;42.60;15.32;;;;;;;;;;5094984;28;20016;-66
2021/06/23 01:00:30;;;;;;;43.10;15.57;;;;;;;;;;5095329;28;20031;-65
2021/06/23 01:02:56;;;;;;;40.08;15.85;;;;;;;;;;5095017;28;20057;-65
2021/06/23 01:05:22;;;;;;;49.03;15.80;;;;;;;;;;5095084;28;20051;-65
2021/06/23 01:07:48;;;;;;;51.08;16.33;;;;;;;;;;5094939;28;20028;-66
2021/06/23 01:10:14;;;;;;;36.15;15.38;;;;;;;;;;5094457;28;20496;-65
2021/06/23 01:12:51;;;;;;;40.85;16.50;;;;;;;;;;5094465;28;20012;-65
2021/06/23 01:15:16;;;;;;;36.50;14.98;;;;;;;;;;5094751;28;20491;-65
2021/06/23 01:17:42;;;;;;;42.90;16.33;;;;;;;;;;5094444;28;20031;-66
2021/06/23 01:20:08;;;;;;;39.75;15.02;;;;;;;;;;5094590;28;20027;-65
2021/06/23 01:22:34;;;;;;;37.58;14.68;;;;;;;;;;5094773;28;20028;-65
2021/06/23 01:25:00;;;;;;;39.25;15.38;;;;;;;;;;5094394;28;20479;-65
2021/06/23 01:27:25;;;;;;;49.60;16.70;;;;;;;;;;5093936;28;20559;-65
2021/06/23 01:29:50;;;;;;;32.72;13.77;;;;;;;;;;5094424;28;20477;-65
2021/06/23 01:32:16;;;;;;;36.58;15.05;;;;;;;;;;5094208;28;20103;-65
2021/06/23 01:34:42;;;;;;;50.90;15.73;;;;;;;;;;5094243;28;20020;-65
2021/06/23 01:37:08;;;;;;;36.67;14.63;;;;;;;;;;5094462;28;20465;-66
2021/06/23 01:39:33;;;;;;;35.00;15.25;;;;;;;;;;5094342;28;20035;-65
2021/06/23 01:41:58;;;;;;;40.53;14.80;;;;;;;;;;5094302;28;20472;-65
2021/06/23 01:44:24;;;;;;;41.05;15.60;;;;;;;;;;5094215;28;20024;-65
2021/06/23 01:46:49;;;;;;;45.63;15.68;;;;;;;;;;5094292;28;20376;-65
2021/06/23 01:49:18;;;;;;;46.92;16.63;;;;;;;;;;5093999;28;20105;-65
2021/06/23 01:51:43;;;;;;;43.80;14.63;;;;;;;;;;5094072;28;20042;-66
2021/06/23 01:54:08;;;;;;;41.30;15.25;;;;;;;;;;5093719;28;20031;-65
2021/06/23 01:56:34;;;;;;;40.75;14.55;;;;;;;;;;5094131;28;20012;-65
2021/06/23 01:58:59;;;;;;;48.63;15.13;;;;;;;;;;5093250;28;20028;-65
2021/06/23 02:01:45;;;;;;;38.20;14.68;;;;;;;;;;5093789;28;20035;-68
2021/06/23 02:04:36;;;;;;;36.15;13.80;;;;;;;;;;5093461;28;20132;-68
2021/06/23 02:07:09;;;;;;;40.72;14.52;;;;;;;;;;5091537;28;20043;-68
2021/06/23 02:10:01;;;;;;;39.80;15.23;;;;;;;;;;5093733;28;20028;-68
2021/06/23 02:12:26;;;;;;;39.85;15.50;;;;;;;;;;5093587;28;20495;-68
2021/06/23 02:14:58;;;;;;;31.77;14.48;;;;;;;;;;5093620;28;20024;-66
2021/06/23 02:17:24;;;;;;;41.85;16.20;;;;;;;;;;5093952;28;20036;-65
2021/06/23 02:19:50;;;;;;;56.13;16.85;;;;;;;;;;5093597;28;20104;-65
2021/06/23 02:22:20;;;;;;;54.78;17.30;;;;;;;;;;5093380;28;20507;-65
2021/06/23 02:24:46;;;;;;;54.72;17.02;;;;;;;;;;5093515;28;20031;-66
2021/06/23 02:27:12;;;;;;;40.97;15.77;;;;;;;;;;5093497;28;20023;-65
2021/06/23 02:29:38;;;;;;;66.85;17.65;;;;;;;;;;5093364;28;20054;-65
2021/06/23 02:32:04;;;;;;;35.75;14.88;;;;;;;;;;5093482;28;20044;-66
2021/06/23 02:34:30;;;;;;;45.67;14.88;;;;;;;;;;5093357;28;20066;-65
2021/06/23 02:36:56;;;;;;;33.85;14.25;;;;;;;;;;5093135;28;20036;-65
2021/06/23 02:39:21;;;;;;;40.33;14.73;;;;;;;;;;5092710;28;20754;-65
2021/06/23 02:41:46;;;;;;;43.67;16.40;;;;;;;;;;5093435;28;20498;-66
2021/06/23 02:44:12;;;;;;;41.50;16.70;;;;;;;;;;5092916;28;20039;-65
2021/06/23 02:46:37;;;;;;;47.65;15.73;;;;;;;;;;5093427;28;20119;-65
2021/06/23 02:49:03;;;;;;;40.03;14.95;;;;;;;;;;5093073;28;20161;-64
2021/06/23 02:51:30;;;;;;;42.90;15.38;;;;;;;;;;5093334;28;20111;-65
2021/06/23 02:53:56;;;;;;;42.90;16.00;;;;;;;;;;5093150;28;20173;-65
2021/06/23 02:56:22;;;;;;;45.65;16.15;;;;;;;;;;5093039;28;20449;-65
2021/06/23 02:58:47;;;;;;;45.42;15.13;;;;;;;;;;5093152;28;20024;-65
2021/06/23 03:01:13;;;;;;;47.28;16.10;;;;;;;;;;5092969;28;20107;-65
2021/06/23 03:03:42;;;;;;;51.28;16.88;;;;;;;;;;5092862;28;20114;-65
2021/06/23 03:06:08;;;;;;;45.15;16.85;;;;;;;;;;5093132;28;20050;-65
2021/06/23 03:08:33;;;;;;;49.22;17.17;;;;;;;;;;5092876;28;20559;-65
2021/06/23 03:10:59;;;;;;;40.42;14.30;;;;;;;;;;5093161;28;20020;-65
2021/06/23 03:13:24;;;;;;;37.67;15.00;;;;;;;;;;5093012;28;20032;-64
2021/06/23 03:15:49;;;;;;;35.78;15.75;;;;;;;;;;5093139;28;20035;-65
2021/06/23 03:18:15;;;;;;;49.65;18.42;;;;;;;;;;5092952;28;20020;-65
2021/06/23 03:20:40;;;;;;;44.58;15.93;;;;;;;;;;5092943;28;20419;-65
2021/06/23 03:23:05;;;;;;;48.47;17.90;;;;;;;;;;5092590;28;20032;-65
2021/06/23 03:25:31;;;;;;;53.15;16.48;;;;;;;;;;5092948;28;20012;-65
2021/06/23 03:27:57;;;;;;;44.67;16.30;;;;;;;;;;5092947;28;20475;-65
2021/06/23 03:30:23;;;;;;;46.75;16.92;;;;;;;;;;5092800;28;20039;-65
2021/06/23 03:32:50;;;;;;;52.85;17.67;;;;;;;;;;5092872;28;20047;-65
2021/06/23 03:35:16;;;;;;;56.05;18.70;;;;;;;;;;5092757;28;20028;-65
2021/06/23 03:37:41;;;;;;;49.58;16.40;;;;;;;;;;5092893;28;20039;-65
2021/06/23 03:40:06;;;;;;;56.55;17.25;;;;;;;;;;5091919;28;20087;-65
2021/06/23 03:42:32;;;;;;;47.60;16.20;;;;;;;;;;5092936;28;20028;-65
2021/06/23 03:44:57;;;;;;;44.80;15.90;;;;;;;;;;5092342;28;20390;-65
2021/06/23 03:47:23;;;;;;;48.53;17.08;;;;;;;;;;5092720;28;20020;-65
2021/06/23 03:49:48;;;;;;;47.83;16.85;;;;;;;;;;5094164;28;20064;-64
2021/06/23 03:52:13;;;;;;;53.58;16.05;;;;;;;;;;5096377;28;20036;-66
2021/06/23 03:54:38;;;;;;;65.30;18.27;;;;;;;;;;5096333;28;20022;-65
2021/06/23 03:57:04;;;;;;;44.20;15.77;;;;;;;;;;5096446;28;20097;-65
2021/06/23 03:59:29;;;;;;;54.90;16.92;;;;;;;;;;5096476;28;20119;-65
2021/06/23 04:01:54;;;;;;;53.22;18.13;;;;;;;;;;5096408;28;20449;-65
2021/06/23 04:04:20;;;;;;;48.95;15.68;;;;;;;;;;5096044;28;20078;-65
2021/06/23 04:06:45;;;;;;;43.70;15.90;;;;;;;;;;5096245;28;20031;-65
2021/06/23 04:09:10;;;;;;;48.42;16.38;;;;;;;;;;5095913;28;20537;-65
2021/06/23 04:11:36;;;;;;;42.58;16.27;;;;;;;;;;5096167;28;20032;-65
2021/06/23 04:14:01;;;;;;;46.50;16.10;;;;;;;;;;5095908;28;20032;-65
2021/06/23 04:16:26;;;;;;;41.40;16.33;;;;;;;;;;5096126;28;20376;-65
2021/06/23 04:18:52;;;;;;;41.63;16.15;;;;;;;;;;5095899;28;20032;-65
2021/06/23 04:21:17;;;;;;;54.15;16.90;;;;;;;;;;5095929;28;20115;-65
2021/06/23 04:23:42;;;;;;;49.25;16.77;;;;;;;;;;5094461;28;20453;-65
2021/06/23 04:26:09;;;;;;;57.97;16.83;;;;;;;;;;5095892;28;20066;-65
2021/06/23 04:28:34;;;;;;;50.58;16.83;;;;;;;;;;5095282;28;20447;-64
2021/06/23 04:31:00;;;;;;;51.30;18.02;;;;;;;;;;5095563;28;20095;-64
2021/06/23 04:33:25;;;;;;;42.30;15.27;;;;;;;;;;5095668;28;20108;-65
2021/06/23 04:35:51;;;;;;;85.47;18.95;;;;;;;;;;5095708;28;20063;-65
2021/06/23 04:38:16;;;;;;;47.42;16.02;;;;;;;;;;5095472;28;20058;-65
2021/06/23 04:40:43;;;;;;;54.20;17.13;;;;;;;;;;5095135;28;20393;-65
2021/06/23 04:43:08;;;;;;;45.80;15.63;;;;;;;;;;5095540;28;20028;-65
2021/06/23 04:45:33;;;;;;;47.35;16.55;;;;;;;;;;5095195;28;20066;-65
2021/06/23 04:47:59;;;;;;;41.83;14.68;;;;;;;;;;5095706;28;20115;-65
2021/06/23 04:50:24;;;;;;;67.53;15.65;;;;;;;;;;5093917;28;20040;-66
2021/06/23 04:52:49;;;;;;;78.63;15.55;;;;;;;;;;5095340;28;20403;-65
2021/06/23 04:55:16;;;;;;;194.88;22.48;;;;;;;;;;5094810;28;20024;-65
2021/06/23 04:57:42;;;;;;;161.90;20.13;;;;;;;;;;5095304;28;20063;-65
2021/06/23 05:00:08;;;;;;;78.82;13.18;;;;;;;;;;5094662;28;20429;-65
2021/06/23 05:02:33;;;;;;;140.88;20.15;;;;;;;;;;5094550;28;20404;-68
2021/06/23 05:04:59;;;;;;;654.85;55.58;;;;;;;;;;5094542;28;20052;-68
2021/06/23 05:07:25;;;;;;;429.38;39.67;;;;;;;;;;5094997;28;20031;-68
2021/06/23 05:09:51;;;;;;;249.18;23.60;;;;;;;;;;5094882;28;20024;-68
2021/06/23 05:12:17;;;;;;;276.73;18.95;;;;;;;;;;5094682;28;20035;-68
2021/06/23 05:14:42;;;;;;;107.55;12.30;;;;;;;;;;5094755;28;20016;-65
2021/06/23 05:17:08;;;;;;;127.78;10.77;;;;;;;;;;5094867;28;20032;-66
2021/06/23 05:19:35;;;;;;;12.63;6.03;;;;;;;;;;5094621;28;20063;-66
2021/06/23 05:22:03;;;;;;;8.35;5.07;;;;;;;;;;5094799;28;20027;-65
2021/06/23 05:24:30;;;;;;;13.02;5.40;;;;;;;;;;5094862;28;20032;-66
2021/06/23 05:26:55;;;;;;;9.32;4.82;;;;;;;;;;5094729;28;20422;-66
2021/06/23 05:29:20;;;;;;;7.13;5.10;;;;;;;;;;5094386;28;20081;-66
2021/06/23 05:31:46;;;;;;;6.18;4.78;;;;;;;;;;5094594;28;20107;-66
2021/06/23 05:34:12;;;;;;;6.50;4.50;;;;;;;;;;5094408;28;20126;-66
2021/06/23 05:36:37;;;;;;;5.38;3.97;;;;;;;;;;5094097;28;20020;-66
2021/06/23 05:39:03;;;;;;;6.22;4.35;;;;;;;;;;5094386;28;20028;-66
2021/06/23 05:41:28;;;;;;;4.68;3.97;;;;;;;;;;5094403;28;20093;-66
2021/06/23 05:43:53;;;;;;;5.97;4.13;;;;;;;;;;5094326;28;20020;-66
2021/06/23 05:46:19;;;;;;;4.90;4.40;;;;;;;;;;5092966;28;20119;-66
2021/06/23 05:48:45;;;;;;;7.32;4.35;;;;;;;;;;5094136;28;20051;-65
2021/06/23 05:51:10;;;;;;;5.10;4.28;;;;;;;;;;5094424;28;20020;-66
2021/06/23 05:53:35;;;;;;;6.75;4.32;;;;;;;;;;5094425;28;20551;-66
2021/06/23 05:56:01;;;;;;;6.00;3.60;;;;;;;;;;5094005;28;20036;-66
2021/06/23 05:58:26;;;;;;;8.80;3.67;;;;;;;;;;5094050;28;20157;-66
2021/06/23 06:00:51;;;;;;;4.18;3.35;;;;;;;;;;5093673;28;20031;-66
2021/06/23 06:03:17;;;;;;;3.67;3.10;;;;;;;;;;5093749;28;20032;-67
2021/06/23 06:05:42;;;;;;;7.75;3.67;;;;;;;;;;5093817;28;20055;-67
2021/06/23 06:08:07;;;;;;;4.70;3.35;;;;;;;;;;5093555;28;20044;-67
2021/06/23 06:10:33;;;;;;;4.72;3.30;;;;;;;;;;5093183;28;20024;-66
2021/06/23 06:12:59;;;;;;;4.75;3.72;;;;;;;;;;5093198;28;20024;-67
2021/06/23 06:15:24;;;;;;;3.55;3.25;;;;;;;;;;5093292;28;20032;-67
2021/06/23 06:17:50;;;;;;;6.00;3.97;;;;;;;;;;5093469;28;20028;-67
2021/06/23 06:20:15;;;;;;;3.88;3.42;;;;;;;;;;5093249;28;20460;-67
2021/06/23 06:22:41;;;;;;;4.45;3.40;;;;;;;;;;5092967;28;20032;-67
2021/06/23 06:25:06;;;;;;;5.53;3.65;;;;;;;;;;5092947;28;20028;-68
2021/06/23 06:27:31;;;;;;;4.40;3.63;;;;;;;;;;5093189;28;20539;-67
2021/06/23 06:29:57;;;;;;;5.20;3.75;;;;;;;;;;5093417;28;20028;-67
2021/06/23 06:32:22;;;;;;;4.82;3.50;;;;;;;;;;5093558;28;20028;-67
2021/06/23 06:34:48;;;;;;;4.97;3.60;;;;;;;;;;5093381;28;20465;-67
2021/06/23 06:37:14;;;;;;;6.05;3.22;;;;;;;;;;5093142;28;20039;-67
2021/06/23 06:39:39;;;;;;;5.38;3.78;;;;;;;;;;5093182;28;20032;-67
2021/06/23 06:42:05;;;;;;;6.00;3.58;;;;;;;;;;5081916;28;20016;-68
2021/06/23 06:44:31;;;;;;;8.32;3.90;;;;;;;;;;5072554;28;20036;-67
2021/06/23 06:46:57;;;;;;;5.90;4.18;;;;;;;;;;5073199;28;20032;-68
2021/06/23 06:49:26;;;;;;;5.15;3.97;;;;;;;;;;5072795;28;20400;-68
2021/06/23 06:51:51;;;;;;;4.75;4.05;;;;;;;;;;5072812;28;20050;-67
2021/06/23 06:54:17;;;;;;;4.55;3.88;;;;;;;;;;5086636;28;20528;-68
2021/06/23 06:56:42;;;;;;;4.70;4.13;;;;;;;;;;5092349;28;20114;-68
2021/06/23 06:59:08;;;;;;;6.93;4.07;;;;;;;;;;5093015;28;20253;-68
2021/06/23 07:01:34;;;;;;;4.90;3.90;;;;;;;;;;5093025;28;20040;-68
2021/06/23 07:03:59;;;;;;;8.52;4.40;;;;;;;;;;5092866;28;20202;-68
2021/06/23 07:06:24;;;;;;;6.63;4.97;;;;;;;;;;5091863;28;20032;-69
2021/06/23 07:08:49;;;;;;;6.90;4.70;;;;;;;;;;5092323;28;20375;-68
2021/06/23 07:11:15;;;;;;;6.75;4.60;;;;;;;;;;5093262;28;20027;-68
2021/06/23 07:13:40;;;;;;;7.47;4.73;;;;;;;;;;5093077;28;20103;-68
2021/06/23 07:16:05;;;;;;;6.77;4.40;;;;;;;;;;5092936;28;20272;-68
2021/06/23 07:18:31;;;;;;;6.45;4.25;;;;;;;;;;5092804;28;20241;-68
2021/06/23 07:20:56;;;;;;;7.82;5.03;;;;;;;;;;5092861;28;20032;-69
2021/06/23 07:23:22;;;;;;;4.90;4.38;;;;;;;;;;5092992;28;20484;-68
2021/06/23 07:25:47;;;;;;;5.82;4.75;;;;;;;;;;5096559;28;20050;-69
2021/06/23 07:28:14;;;;;;;11.10;5.10;;;;;;;;;;5089173;28;20472;-68
2021/06/23 07:30:43;;;;;;;8.27;5.15;;;;;;;;;;5094351;28;20359;-67
2021/06/23 07:33:09;;;;;;;5.78;3.92;;;;;;;;;;5094913;28;20022;-68
2021/06/23 07:38:18;;;;;;;6.97;4.63;;;;;;;;;;5093253;28;20089;-69
2021/06/23 07:41:00;;;;;;;6.95;5.03;;;;;;;;;;5095620;28;20070;-68
2021/06/23 07:43:26;;;;;;;5.65;4.88;;;;;;;;;;5095661;28;20050;-69
2021/06/23 07:45:53;;;;;;;48.20;5.93;;;;;;;;;;5095182;28;20461;-69
2021/06/23 07:48:23;;;;;;;7.03;5.43;;;;;;;;;;5095946;28;20044;-69
2021/06/23 07:50:55;;;;;;;6.25;5.30;;;;;;;;;;5095078;28;20020;-69
2021/06/23 07:56:06;;;;;;;9.87;5.40;;;;;;;;;;5095839;28;20460;-68
2021/06/23 08:12:06;;;;;;;9.90;5.78;;;;;;;;;;5091764;28;20470;-66
2021/06/23 08:14:31;;;;;;;8.10;4.93;;;;;;;;;;5071628;28;20020;-68
2021/06/23 08:16:56;;;;;;;6.80;4.85;;;;;;;;;;5072119;28;20032;-68
2021/06/23 08:19:22;;;;;;;7.27;4.90;;;;;;;;;;5071972;28;20021;-69
2021/06/23 08:21:47;;;;;;;5.63;4.50;;;;;;;;;;5072123;28;20309;-69
2021/06/23 08:24:12;;;;;;;6.72;4.70;;;;;;;;;;5072240;28;20261;-69
2021/06/23 08:26:37;;;;;;;6.33;4.63;;;;;;;;;;5072106;28;20027;-69
2021/06/23 08:29:03;;;;;;;6.03;4.93;;;;;;;;;;5067239;28;20288;-68
2021/06/23 08:31:28;;;;;;;6.38;4.50;;;;;;;;;;5071275;28;20337;-68
2021/06/23 08:33:53;;;;;;;5.50;4.47;;;;;;;;;;5072519;28;20020;-69
2021/06/23 08:36:19;;;;;;;5.47;4.30;;;;;;;;;;5086221;28;20571;-69
2021/06/23 08:38:44;;;;;;;6.47;4.80;;;;;;;;;;5092198;28;20548;-68
2021/06/23 08:41:10;;;;;;;7.43;3.87;;;;;;;;;;5091249;28;20019;-68
2021/06/23 08:43:35;;;;;;;6.47;3.88;;;;;;;;;;5092104;28;20324;-68
2021/06/23 08:46:01;;;;;;;4.90;3.78;;;;;;;;;;5092586;28;20043;-68
2021/06/23 08:48:27;;;;;;;5.93;3.90;;;;;;;;;;5092110;28;20028;-69
2021/06/23 08:50:53;;;;;;;6.00;4.50;;;;;;;;;;5091409;28;20023;-69
2021/06/23 08:53:18;;;;;;;7.30;4.15;;;;;;;;;;5092053;28;20039;-69
2021/06/23 08:55:43;;;;;;;5.80;4.00;;;;;;;;;;5092052;28;20023;-69
2021/06/23 08:58:08;;;;;;;5.70;4.17;;;;;;;;;;5091611;28;20709;-67
2021/06/23 09:00:34;;;;;;;4.90;4.28;;;;;;;;;;5091982;28;20280;-70
2021/06/23 09:03:03;;;;;;;6.88;4.32;;;;;;;;;;5091104;28;20029;-69
2021/06/23 09:05:45;;;;;;;5.25;4.30;;;;;;;;;;5091532;28;20043;-69
2021/06/23 09:08:10;;;;;;;6.45;4.55;;;;;;;;;;5091837;28;20035;-69
2021/06/23 09:10:36;;;;;;;5.97;4.30;;;;;;;;;;5091450;28;20024;-69
2021/06/23 09:13:07;;;;;;;5.15;4.22;;;;;;;;;;5091556;28;20340;-69
2021/06/23 09:15:49;;;;;;;6.82;4.47;;;;;;;;;;5092091;28;20119;-70
2021/06/23 09:18:15;;;;;;;5.05;3.90;;;;;;;;;;5091449;28;20506;-70
2021/06/23 09:20:41;;;;;;;8.63;4.18;;;;;;;;;;5091781;28;20114;-70
2021/06/23 09:23:06;;;;;;;5.07;4.03;;;;;;;;;;5092277;28;20468;-70
2021/06/23 09:25:36;;;;;;;6.97;4.28;;;;;;;;;;5088114;28;20418;-70
2021/06/23 09:28:04;;;;;;;6.07;4.07;;;;;;;;;;5091183;28;20054;-69
2021/06/23 09:30:37;;;;;;;6.85;3.80;;;;;;;;;;5089772;28;20016;-70
2021/06/23 09:33:18;;;;;;;7.43;5.22;;;;;;;;;;5091039;28;20043;-69
2021/06/23 09:35:46;;;;;;;7.63;4.40;;;;;;;;;;5089376;28;20051;-69
2021/06/23 09:38:33;;;;;;;9.00;5.47;;;;;;;;;;5091317;28;20034;-68
2021/06/23 09:41:03;;;;;;;9.90;6.53;;;;;;;;;;5091098;28;20036;-68
2021/06/23 09:43:39;;;;;;;9.15;8.20;;;;;;;;;;5091571;28;20040;-69
2021/06/23 09:46:23;;;;;;;9.45;6.85;;;;;;;;;;5090160;28;20073;-68
2021/06/23 09:48:49;;;;;;;9.07;7.03;;;;;;;;;;5090860;28;20031;-70
2021/06/23 09:51:16;;;;;;;6.22;4.68;;;;;;;;;;5090225;28;20122;-69
2021/06/23 09:53:42;;;;;;;7.13;4.40;;;;;;;;;;5090046;28;20023;-70
2021/06/23 09:56:25;;;;;;;7.68;4.47;;;;;;;;;;5090248;28;20094;-67
2021/06/23 09:58:52;;;;;;;7.32;4.30;;;;;;;;;;5090273;28;20050;-70
2021/06/23 10:01:17;;;;;;;5.25;3.72;;;;;;;;;;5090024;28;20451;-69
2021/06/23 10:03:55;;;;;;;5.25;3.67;;;;;;;;;;5090524;28;20135;-69
2021/06/23 10:06:21;;;;;;;5.70;4.32;;;;;;;;;;5090071;28;20031;-68
2021/06/23 10:08:47;;;;;;;7.53;4.05;;;;;;;;;;5090693;28;20032;-69
2021/06/23 10:11:12;;;;;;;9.48;4.47;;;;;;;;;;5091138;28;20376;-68
2021/06/23 10:13:37;;;;;;;6.93;4.22;;;;;;;;;;5091061;28;20064;-69
2021/06/23 10:16:03;;;;;;;6.32;3.97;;;;;;;;;;5090845;28;20384;-68
2021/06/23 10:18:29;;;;;;;6.25;4.10;;;;;;;;;;5082178;28;20042;-69
2021/06/23 10:20:54;;;;;;;7.18;4.30;;;;;;;;;;5090235;28;20063;-69
2021/06/23 10:23:20;;;;;;;5.78;4.43;;;;;;;;;;5090809;28;20469;-69
2021/06/23 10:25:45;;;;;;;7.20;4.45;;;;;;;;;;5087036;28;20024;-69
2021/06/23 10:28:11;;;;;;;6.75;4.03;;;;;;;;;;5089468;28;20024;-68
2021/06/23 10:30:36;;;;;;;8.65;4.43;;;;;;;;;;5089903;28;20465;-69
2021/06/23 10:33:02;;;;;;;6.13;3.60;;;;;;;;;;5089753;28;20411;-69
2021/06/23 10:35:27;;;;;;;5.88;4.05;;;;;;;;;;5090062;28;20035;-69
2021/06/23 10:37:53;;;;;;;8.85;4.20;;;;;;;;;;5089746;28;20043;-69
2021/06/23 10:40:19;;;;;;;4.82;3.70;;;;;;;;;;5089000;28;20027;-69
2021/06/23 10:42:45;;;;;;;5.03;3.80;;;;;;;;;;5089471;28;20040;-69
2021/06/23 10:45:11;;;;;;;5.47;4.13;;;;;;;;;;5089648;28;20039;-67
2021/06/23 10:47:38;;;;;;;4.78;3.97;;;;;;;;;;5090072;28;20020;-68
2021/06/23 10:50:04;;;;;;;6.30;3.95;;;;;;;;;;5089244;28;20111;-66
2021/06/23 10:52:30;;;;;;;5.75;4.20;;;;;;;;;;5090232;28;20115;-68
2021/06/23 10:54:57;;;;;;;5.90;4.22;;;;;;;;;;5087929;28;20080;-68
2021/06/23 10:57:32;;;;;;;5.95;3.75;;;;;;;;;;5089350;28;20028;-68
2021/06/23 11:00:01;;;;;;;6.70;4.32;;;;;;;;;;5091043;28;20043;-67
2021/06/23 11:02:34;;;;;;;5.22;4.00;;;;;;;;;;5093374;28;20480;-67
2021/06/23 11:05:06;;;;;;;6.47;4.40;;;;;;;;;;5093941;28;20110;-68
2021/06/23 11:07:43;;;;;;;7.10;4.47;;;;;;;;;;5088768;28;20020;-67
2021/06/23 11:12:54;;;;;;;7.47;4.05;;;;;;;;;;5093886;28;20452;-67
2021/06/23 11:15:25;;;;;;;7.15;4.78;;;;;;;;;;5093669;28;20056;-68
2021/06/23 11:17:52;;;;;;;5.70;4.10;;;;;;;;;;5093286;28;20028;-68
2021/06/23 11:20:20;;;;;;;5.18;4.07;;;;;;;;;;5093201;28;20028;-68
2021/06/23 11:22:49;;;;;;;7.13;3.85;;;;;;;;;;5093426;28;20063;-68
2021/06/23 11:25:25;;;;;;;7.22;3.95;;;;;;;;;;5093069;28;20032;-68
2021/06/23 11:28:09;;;;;;;6.47;4.20;;;;;;;;;;5089672;28;20515;-67
2021/06/23 11:30:35;;;;;;;9.10;4.00;;;;;;;;;;5091567;28;20112;-67
2021/06/23 11:33:19;;;;;;;6.05;4.15;;;;;;;;;;5092321;28;20098;-66
2021/06/23 11:35:44;;;;;;;7.43;4.03;;;;;;;;;;5092058;28;20425;-67
2021/06/23 11:38:09;;;;;;;6.18;3.35;;;;;;;;;;5089720;28;20126;-67
2021/06/23 11:40:35;;;;;;;6.63;3.58;;;;;;;;;;5092567;28;20020;-67
2021/06/23 11:43:02;;;;;;;5.68;3.50;;;;;;;;;;5093504;28;20063;-67
2021/06/23 11:45:27;;;;;;;6.38;3.92;;;;;;;;;;5093080;28;20357;-66
2021/06/23 11:47:52;;;;;;;7.07;3.45;;;;;;;;;;5092938;28;20039;-65
2021/06/23 11:50:18;;;;;;;10.00;3.63;;;;;;;;;;5086033;28;20028;-66
2021/06/23 11:52:43;;;;;;;8.98;4.18;;;;;;;;;;5091081;28;20115;-67
2021/06/23 11:55:09;;;;;;;4.85;3.97;;;;;;;;;;5090146;28;20109;-66
2021/06/23 11:57:35;;;;;;;7.57;4.03;;;;;;;;;;5082609;28;20039;-67
2021/06/23 12:00:00;;;;;;;5.90;4.80;;;;;;;;;;5089026;28;20048;-67
2021/06/23 12:02:27;;;;;;;6.13;4.18;;;;;;;;;;5089139;28;20043;-68
2021/06/23 12:04:52;;;;;;;7.00;3.90;;;;;;;;;;5087921;28;20479;-66
2021/06/23 12:07:17;;;;;;;6.13;3.80;;;;;;;;;;5088902;28;20131;-69
2021/06/23 12:09:42;;;;;;;5.57;3.30;;;;;;;;;;5089397;28;20024;-67
2021/06/23 12:12:08;;;;;;;5.57;4.10;;;;;;;;;;5089599;28;20503;-68
2021/06/23 12:14:33;;;;;;;4.97;3.92;;;;;;;;;;5089109;28;20071;-69
2021/06/23 12:16:59;;;;;;;6.30;3.83;;;;;;;;;;5088909;28;20073;-68
2021/06/23 12:19:24;;;;;;;8.23;4.25;;;;;;;;;;5089592;28;20358;-69
2021/06/23 12:21:49;;;;;;;4.90;3.70;;;;;;;;;;5089472;28;20044;-67
2021/06/23 12:24:14;;;;;;;5.30;3.90;;;;;;;;;;5088448;28;20477;-69
2021/06/23 12:26:40;;;;;;;6.78;4.78;;;;;;;;;;5089253;28;20415;-69
2021/06/23 12:29:05;;;;;;;5.28;4.03;;;;;;;;;;5088901;28;20103;-69
2021/06/23 12:31:31;;;;;;;5.80;3.80;;;;;;;;;;5089002;28;20030;-69
2021/06/23 12:33:56;;;;;;;7.05;4.00;;;;;;;;;;5088519;28;20032;-67
2021/06/23 12:36:21;;;;;;;6.53;3.33;;;;;;;;;;5089820;28;20111;-70
2021/06/23 12:38:47;;;;;;;5.68;2.83;;;;;;;;;;5088547;28;20115;-69
2021/06/23 12:41:12;;;;;;;4.65;3.00;;;;;;;;;;5088753;28;20024;-68
2021/06/23 12:43:37;;;;;;;4.90;2.80;;;;;;;;;;5085741;28;20496;-69
2021/06/23 12:46:02;;;;;;;6.38;3.22;;;;;;;;;;5088553;28;20020;-67
2021/06/23 12:48:28;;;;;;;4.47;3.28;;;;;;;;;;5089453;28;20020;-69
2021/06/23 12:50:53;;;;;;;5.18;3.45;;;;;;;;;;5088508;28;21022;-70
2021/06/23 12:53:19;;;;;;;5.57;3.80;;;;;;;;;;5088178;28;20085;-69
2021/06/23 12:55:44;;;;;;;6.65;3.90;;;;;;;;;;5087081;28;20028;-69
2021/06/23 12:58:09;;;;;;;6.28;4.13;;;;;;;;;;5089736;28;20044;-69
2021/06/23 13:00:35;;;;;;;6.03;3.80;;;;;;;;;;5089369;28;20032;-69
2021/06/23 13:03:00;;;;;;;10.27;4.00;;;;;;;;;;5088959;28;20023;-69
2021/06/23 13:05:26;;;;;;;7.05;4.28;;;;;;;;;;5088624;28;20054;-69
2021/06/23 13:07:51;;;;;;;6.45;3.67;;;;;;;;;;5086322;28;20024;-69
2021/06/23 13:10:18;;;;;;;5.45;4.57;;;;;;;;;;5089407;28;20016;-69
2021/06/23 13:12:43;;;;;;;7.97;4.32;;;;;;;;;;5089525;28;20031;-68
2021/06/23 13:15:09;;;;;;;6.00;3.85;;;;;;;;;;5087704;28;20368;-69
2021/06/23 13:17:34;;;;;;;7.70;3.88;;;;;;;;;;5088575;28;20072;-69
2021/06/23 13:20:00;;;;;;;7.13;4.25;;;;;;;;;;5086927;28;20032;-69
2021/06/23 13:22:25;;;;;;;5.38;3.80;;;;;;;;;;5087364;28;20012;-69
2021/06/23 13:24:51;;;;;;;6.97;3.80;;;;;;;;;;5087982;28;20536;-66
2021/06/23 13:27:16;;;;;;;6.00;3.80;;;;;;;;;;5088880;28;20043;-68
2021/06/23 13:29:41;;;;;;;6.53;4.72;;;;;;;;;;5088082;28;20521;-69
2021/06/23 13:32:08;;;;;;;5.65;4.35;;;;;;;;;;5089014;28;20429;-69
2021/06/23 13:34:34;;;;;;;5.30;3.92;;;;;;;;;;5088051;28;20067;-69
2021/06/23 13:37:00;;;;;;;8.70;5.25;;;;;;;;;;5088305;28;20023;-69
2021/06/23 13:39:25;;;;;;;8.05;5.10;;;;;;;;;;5088704;28;20032;-67
2021/06/23 13:41:50;;;;;;;10.73;6.75;;;;;;;;;;5087870;28;20067;-69
2021/06/23 13:44:16;;;;;;;10.55;6.47;;;;;;;;;;5086937;28;20016;-68
2021/06/23 13:46:41;;;;;;;7.78;5.00;;;;;;;;;;5089105;28;20417;-69
2021/06/23 13:49:06;;;;;;;10.90;6.65;;;;;;;;;;5088160;28;20036;-69
2021/06/23 13:51:32;;;;;;;9.30;6.40;;;;;;;;;;5088811;28;20020;-69
2021/06/23 13:53:58;;;;;;;9.68;7.00;;;;;;;;;;5087306;28;20651;-69
2021/06/23 13:56:23;;;;;;;7.85;5.43;;;;;;;;;;5087658;28;20032;-69
2021/06/23 13:58:48;;;;;;;11.70;5.93;;;;;;;;;;5088117;28;20032;-68
2021/06/23 14:01:14;;;;;;;11.65;6.75;;;;;;;;;;5086924;28;20069;-69
2021/06/23 14:03:39;;;;;;;9.95;6.55;;;;;;;;;;5087313;28;20097;-67
2021/06/23 14:06:04;;;;;;;8.35;5.30;;;;;;;;;;5086381;28;20012;-65
2021/06/23 14:08:29;;;;;;;9.13;5.28;;;;;;;;;;5088785;28;20436;-66
2021/06/23 14:10:56;;;;;;;8.35;5.45;;;;;;;;;;5086685;28;20044;-67
2021/06/23 14:13:22;;;;;;;9.15;6.68;;;;;;;;;;5088779;28;20341;-67
2021/06/23 14:15:47;;;;;;;8.82;6.72;;;;;;;;;;5087901;28;20031;-67
2021/06/23 14:18:12;;;;;;;9.60;6.65;;;;;;;;;;5089591;28;20129;-67
2021/06/23 14:20:38;;;;;;;10.52;7.00;;;;;;;;;;5087770;28;20024;-67
2021/06/23 14:23:03;;;;;;;11.48;7.43;;;;;;;;;;5078411;28;20051;-64
2021/06/23 14:25:28;;;;;;;9.63;6.70;;;;;;;;;;5084866;28;20031;-67
2021/06/23 14:27:54;;;;;;;9.07;6.72;;;;;;;;;;5087497;28;20467;-67
2021/06/23 14:30:20;;;;;;;12.13;7.40;;;;;;;;;;5087251;28;20103;-67
2021/06/23 14:32:46;;;;;;;11.13;7.65;;;;;;;;;;5088581;28;20024;-67
2021/06/23 14:35:11;;;;;;;13.23;6.75;;;;;;;;;;5087235;28;20040;-66
2021/06/23 14:37:37;;;;;;;13.15;6.57;;;;;;;;;;5088086;28;20020;-67
2021/06/23 14:40:06;;;;;;;14.07;6.63;;;;;;;;;;5087171;28;20020;-67
2021/06/23 14:42:31;;;;;;;8.25;7.40;;;;;;;;;;5087306;28;20012;-67
2021/06/23 14:44:56;;;;;;;10.60;7.10;;;;;;;;;;5087543;28;20031;-66
2021/06/23 14:47:22;;;;;;;11.18;7.63;;;;;;;;;;5087586;28;20024;-66
2021/06/23 14:49:47;;;;;;;15.18;7.47;;;;;;;;;;5087126;28;20333;-66
2021/06/23 14:52:12;;;;;;;11.52;6.88;;;;;;;;;;5087467;28;20016;-66